Terminal Aerodrome Forecast
Issued by NWS Wilmington, OH

Home | Current Version | Previous Version | Text Only | Print | Product List | Glossary On
Versions: 1 2 3 4 5 6 7 8 9 10 11 12 13 14 15 16 17 18 19 20 21 22 23 24 25 26
342
FTUS41 KILN 212341
TAFCVG
TAF
KCVG 212341Z 2200/2306 24004KT 5SM -SHRA BR OVC050
     FM220400 00000KT 4SM BR VCSH OVC035
     FM220600 VRB03KT 4SM BR VCSH OVC015
     FM221100 VRB03KT 2SM BR OVC008
     FM221500 19004KT 5SM BR OVC008
     FM221900 19005KT P6SM BKN025=

USA.gov is the U.S. government's official web portal to all federal, state and local government web resources and services.